sensor_id;sensor_type;location;lat;lon;timestamp;temperature;humidity
21167;DHT22;10741;52.272;9.580;2022-07-18T00:01:39;15.00;99.90
21167;DHT22;10741;52.272;9.580;2022-07-18T00:04:05;15.00;99.90
21167;DHT22;10741;52.272;9.580;2022-07-18T00:06:31;14.90;99.90
21167;DHT22;10741;52.272;9.580;2022-07-18T00:08:57;14.80;99.90
21167;DHT22;10741;52.272;9.580;2022-07-18T00:11:22;14.90;99.90
21167;DHT22;10741;52.272;9.580;2022-07-18T00:13:48;14.90;99.90
21167;DHT22;10741;52.272;9.580;2022-07-18T00:16:17;14.80;99.90
21167;DHT22;10741;52.272;9.580;2022-07-18T00:18:44;14.80;99.90
21167;DHT22;10741;52.272;9.580;2022-07-18T00:21:10;14.80;99.90
21167;DHT22;10741;52.272;9.580;2022-07-18T00:23:36;14.90;99.90
21167;DHT22;10741;52.272;9.580;2022-07-18T00:26:01;14.80;99.90
21167;DHT22;10741;52.272;9.580;2022-07-18T00:28:27;14.80;99.90
21167;DHT22;10741;52.272;9.580;2022-07-18T00:30:53;14.80;99.90
21167;DHT22;10741;52.272;9.580;2022-07-18T00:33:19;14.80;99.90
21167;DHT22;10741;52.272;9.580;2022-07-18T00:35:44;14.80;99.90
21167;DHT22;10741;52.272;9.580;2022-07-18T00:38:10;14.80;99.90
21167;DHT22;10741;52.272;9.580;2022-07-18T00:40:36;14.70;99.90
21167;DHT22;10741;52.272;9.580;2022-07-18T00:43:02;14.70;99.90
21167;DHT22;10741;52.272;9.580;2022-07-18T00:45:28;14.60;99.90
21167;DHT22;10741;52.272;9.580;2022-07-18T00:47:54;14.60;99.90
21167;DHT22;10741;52.272;9.580;2022-07-18T00:50:21;14.50;99.90
21167;DHT22;10741;52.272;9.580;2022-07-18T00:52:47;14.50;99.90
21167;DHT22;10741;52.272;9.580;2022-07-18T00:55:13;14.50;99.90
21167;DHT22;10741;52.272;9.580;2022-07-18T00:57:40;14.50;99.90
21167;DHT22;10741;52.272;9.580;2022-07-18T01:00:10;14.50;99.90
21167;DHT22;10741;52.272;9.580;2022-07-18T01:03:08;14.50;99.90
21167;DHT22;10741;52.272;9.580;2022-07-18T01:05:34;14.50;99.90
21167;DHT22;10741;52.272;9.580;2022-07-18T01:08:00;14.40;99.90
21167;DHT22;10741;52.272;9.580;2022-07-18T01:10:26;14.40;99.90
21167;DHT22;10741;52.272;9.580;2022-07-18T01:12:52;14.40;99.90
21167;DHT22;10741;52.272;9.580;2022-07-18T01:15:18;14.30;99.90
21167;DHT22;10741;52.272;9.580;2022-07-18T01:17:44;14.30;99.90
21167;DHT22;10741;52.272;9.580;2022-07-18T01:20:10;14.20;99.90
21167;DHT22;10741;52.272;9.580;2022-07-18T01:22:36;14.20;99.90
21167;DHT22;10741;52.272;9.580;2022-07-18T01:25:03;14.20;99.90
21167;DHT22;10741;52.272;9.580;2022-07-18T01:27:28;14.10;99.90
21167;DHT22;10741;52.272;9.580;2022-07-18T01:29:54;14.10;99.90
21167;DHT22;10741;52.272;9.580;2022-07-18T01:32:20;14.00;99.90
21167;DHT22;10741;52.272;9.580;2022-07-18T01:34:47;14.00;99.90
21167;DHT22;10741;52.272;9.580;2022-07-18T01:37:13;14.00;99.90
21167;DHT22;10741;52.272;9.580;2022-07-18T01:39:40;13.90;99.90
21167;DHT22;10741;52.272;9.580;2022-07-18T01:42:08;13.90;99.90
21167;DHT22;10741;52.272;9.580;2022-07-18T01:44:35;13.90;99.90
21167;DHT22;10741;52.272;9.580;2022-07-18T01:47:02;13.90;99.90
21167;DHT22;10741;52.272;9.580;2022-07-18T01:49:28;13.90;99.90
21167;DHT22;10741;52.272;9.580;2022-07-18T01:51:58;13.90;99.90
21167;DHT22;10741;52.272;9.580;2022-07-18T01:54:27;13.90;99.90
21167;DHT22;10741;52.272;9.580;2022-07-18T01:56:53;13.80;99.90
21167;DHT22;10741;52.272;9.580;2022-07-18T01:59:19;13.80;99.90
21167;DHT22;10741;52.272;9.580;2022-07-18T02:01:45;13.80;99.90
21167;DHT22;10741;52.272;9.580;2022-07-18T02:04:11;13.80;99.90
21167;DHT22;10741;52.272;9.580;2022-07-18T02:06:37;13.80;99.90
21167;DHT22;10741;52.272;9.580;2022-07-18T02:09:05;13.80;99.90
21167;DHT22;10741;52.272;9.580;2022-07-18T02:11:32;13.70;99.90
21167;DHT22;10741;52.272;9.580;2022-07-18T02:13:57;13.70;99.90
21167;DHT22;10741;52.272;9.580;2022-07-18T02:16:23;13.70;99.90
21167;DHT22;10741;52.272;9.580;2022-07-18T02:18:49;13.60;99.90
21167;DHT22;10741;52.272;9.580;2022-07-18T02:21:15;13.60;99.90
21167;DHT22;10741;52.272;9.580;2022-07-18T02:23:42;13.60;99.90
21167;DHT22;10741;52.272;9.580;2022-07-18T02:26:08;13.60;99.90
21167;DHT22;10741;52.272;9.580;2022-07-18T02:28:34;13.60;99.90
21167;DHT22;10741;52.272;9.580;2022-07-18T02:31:00;13.50;99.90
21167;DHT22;10741;52.272;9.580;2022-07-18T02:33:26;13.50;99.90
21167;DHT22;10741;52.272;9.580;2022-07-18T02:35:52;13.50;99.90
21167;DHT22;10741;52.272;9.580;2022-07-18T02:38:18;13.50;99.90
21167;DHT22;10741;52.272;9.580;2022-07-18T02:40:43;13.50;99.90
21167;DHT22;10741;52.272;9.580;2022-07-18T02:43:09;13.40;99.90
21167;DHT22;10741;52.272;9.580;2022-07-18T02:45:35;13.50;99.90
21167;DHT22;10741;52.272;9.580;2022-07-18T02:48:01;13.40;99.90
21167;DHT22;10741;52.272;9.580;2022-07-18T02:50:27;13.40;99.90
21167;DHT22;10741;52.272;9.580;2022-07-18T02:52:53;13.40;99.90
21167;DHT22;10741;52.272;9.580;2022-07-18T02:55:19;13.30;99.90
21167;DHT22;10741;52.272;9.580;2022-07-18T02:57:46;13.30;99.90
21167;DHT22;10741;52.272;9.580;2022-07-18T03:00:13;13.30;99.90
21167;DHT22;10741;52.272;9.580;2022-07-18T03:02:40;13.30;99.90
21167;DHT22;10741;52.272;9.580;2022-07-18T03:05:07;13.20;99.90
21167;DHT22;10741;52.272;9.580;2022-07-18T03:07:33;13.30;99.90
21167;DHT22;10741;52.272;9.580;2022-07-18T03:09:59;13.30;99.90
21167;DHT22;10741;52.272;9.580;2022-07-18T03:12:25;13.20;99.90
21167;DHT22;10741;52.272;9.580;2022-07-18T03:14:51;13.10;99.90
21167;DHT22;10741;52.272;9.580;2022-07-18T03:17:17;13.10;99.90
21167;DHT22;10741;52.272;9.580;2022-07-18T03:19:42;13.10;99.90
21167;DHT22;10741;52.272;9.580;2022-07-18T03:22:08;13.10;99.90
21167;DHT22;10741;52.272;9.580;2022-07-18T03:24:34;13.10;99.90
21167;DHT22;10741;52.272;9.580;2022-07-18T03:27:00;13.10;99.90
21167;DHT22;10741;52.272;9.580;2022-07-18T03:29:26;13.10;99.90
21167;DHT22;10741;52.272;9.580;2022-07-18T03:31:52;13.10;99.90
21167;DHT22;10741;52.272;9.580;2022-07-18T03:34:18;13.10;99.90
21167;DHT22;10741;52.272;9.580;2022-07-18T03:36:44;13.00;99.90
21167;DHT22;10741;52.272;9.580;2022-07-18T03:39:11;13.00;99.90
21167;DHT22;10741;52.272;9.580;2022-07-18T03:41:38;13.00;99.90
21167;DHT22;10741;52.272;9.580;2022-07-18T03:44:04;13.00;99.90
21167;DHT22;10741;52.272;9.580;2022-07-18T03:46:30;13.10;99.90
21167;DHT22;10741;52.272;9.580;2022-07-18T03:48:56;13.10;99.90
21167;DHT22;10741;52.272;9.580;2022-07-18T03:51:22;13.10;99.90
21167;DHT22;10741;52.272;9.580;2022-07-18T03:53:48;13.20;99.90
21167;DHT22;10741;52.272;9.580;2022-07-18T03:56:13;13.20;99.90
21167;DHT22;10741;52.272;9.580;2022-07-18T03:58:39;13.30;99.90
21167;DHT22;10741;52.272;9.580;2022-07-18T04:01:05;13.30;99.90
21167;DHT22;10741;52.272;9.580;2022-07-18T04:03:31;13.30;99.90
21167;DHT22;10741;52.272;9.580;2022-07-18T04:05:56;13.40;99.90
21167;DHT22;10741;52.272;9.580;2022-07-18T04:08:22;13.40;99.90
21167;DHT22;10741;52.272;9.580;2022-07-18T04:10:48;13.40;99.90
21167;DHT22;10741;52.272;9.580;2022-07-18T04:13:14;13.40;99.90
21167;DHT22;10741;52.272;9.580;2022-07-18T04:15:40;13.40;99.90
21167;DHT22;10741;52.272;9.580;2022-07-18T04:18:07;13.40;99.90
21167;DHT22;10741;52.272;9.580;2022-07-18T04:20:34;13.40;99.90
21167;DHT22;10741;52.272;9.580;2022-07-18T04:23:02;13.40;99.90
21167;DHT22;10741;52.272;9.580;2022-07-18T04:25:32;13.50;99.90
21167;DHT22;10741;52.272;9.580;2022-07-18T04:27:59;13.50;99.90
21167;DHT22;10741;52.272;9.580;2022-07-18T04:30:28;13.60;99.90
21167;DHT22;10741;52.272;9.580;2022-07-18T04:32:56;13.70;99.90
21167;DHT22;10741;52.272;9.580;2022-07-18T04:35:23;13.70;99.90
21167;DHT22;10741;52.272;9.580;2022-07-18T04:37:50;13.80;99.90
21167;DHT22;10741;52.272;9.580;2022-07-18T04:40:16;13.80;99.90
21167;DHT22;10741;52.272;9.580;2022-07-18T04:42:43;13.80;99.90
21167;DHT22;10741;52.272;9.580;2022-07-18T04:45:11;13.90;99.90
21167;DHT22;10741;52.272;9.580;2022-07-18T04:47:36;14.00;99.90
21167;DHT22;10741;52.272;9.580;2022-07-18T04:50:06;14.10;99.90
21167;DHT22;10741;52.272;9.580;2022-07-18T04:52:39;14.20;99.90
21167;DHT22;10741;52.272;9.580;2022-07-18T04:55:06;14.40;99.90
21167;DHT22;10741;52.272;9.580;2022-07-18T04:57:33;14.50;99.90
21167;DHT22;10741;52.272;9.580;2022-07-18T05:00:00;14.60;99.90
21167;DHT22;10741;52.272;9.580;2022-07-18T05:02:26;14.70;99.90
21167;DHT22;10741;52.272;9.580;2022-07-18T05:04:52;14.80;99.90
21167;DHT22;10741;52.272;9.580;2022-07-18T05:07:17;14.90;99.90
21167;DHT22;10741;52.272;9.580;2022-07-18T05:09:43;14.90;99.90
21167;DHT22;10741;52.272;9.580;2022-07-18T05:12:09;15.00;99.90
21167;DHT22;10741;52.272;9.580;2022-07-18T05:14:35;15.00;99.90
21167;DHT22;10741;52.272;9.580;2022-07-18T05:17:01;15.00;99.90
21167;DHT22;10741;52.272;9.580;2022-07-18T05:19:27;15.10;99.90
21167;DHT22;10741;52.272;9.580;2022-07-18T05:21:53;15.10;99.90
21167;DHT22;10741;52.272;9.580;2022-07-18T05:24:19;15.20;99.90
21167;DHT22;10741;52.272;9.580;2022-07-18T05:26:45;15.30;99.90
21167;DHT22;10741;52.272;9.580;2022-07-18T05:29:11;15.50;99.90
21167;DHT22;10741;52.272;9.580;2022-07-18T05:31:39;15.70;99.90
21167;DHT22;10741;52.272;9.580;2022-07-18T05:34:05;15.90;99.90
21167;DHT22;10741;52.272;9.580;2022-07-18T05:36:31;16.10;99.90
21167;DHT22;10741;52.272;9.580;2022-07-18T05:38:57;16.30;99.90
21167;DHT22;10741;52.272;9.580;2022-07-18T05:41:23;16.40;99.90
21167;DHT22;10741;52.272;9.580;2022-07-18T05:43:48;16.60;99.90
21167;DHT22;10741;52.272;9.580;2022-07-18T05:46:14;16.80;99.90
21167;DHT22;10741;52.272;9.580;2022-07-18T05:48:40;16.90;99.90
21167;DHT22;10741;52.272;9.580;2022-07-18T05:51:06;17.10;99.90
21167;DHT22;10741;52.272;9.580;2022-07-18T05:53:32;17.30;99.90
21167;DHT22;10741;52.272;9.580;2022-07-18T05:55:58;17.40;99.90
21167;DHT22;10741;52.272;9.580;2022-07-18T05:58:24;17.60;99.90
21167;DHT22;10741;52.272;9.580;2022-07-18T06:00:49;17.70;99.90
21167;DHT22;10741;52.272;9.580;2022-07-18T06:03:15;17.90;99.90
21167;DHT22;10741;52.272;9.580;2022-07-18T06:05:41;18.00;99.90
21167;DHT22;10741;52.272;9.580;2022-07-18T06:08:07;18.30;99.90
21167;DHT22;10741;52.272;9.580;2022-07-18T06:10:33;18.60;99.90
21167;DHT22;10741;52.272;9.580;2022-07-18T06:12:58;18.80;99.90
21167;DHT22;10741;52.272;9.580;2022-07-18T06:15:24;19.00;99.90
21167;DHT22;10741;52.272;9.580;2022-07-18T06:17:50;19.20;99.90
21167;DHT22;10741;52.272;9.580;2022-07-18T06:20:17;19.30;99.90
21167;DHT22;10741;52.272;9.580;2022-07-18T06:22:43;19.50;99.90
21167;DHT22;10741;52.272;9.580;2022-07-18T06:25:09;19.60;99.90
21167;DHT22;10741;52.272;9.580;2022-07-18T06:27:35;19.80;99.90
21167;DHT22;10741;52.272;9.580;2022-07-18T06:30:03;20.00;99.60
21167;DHT22;10741;52.272;9.580;2022-07-18T06:32:30;20.00;99.40
21167;DHT22;10741;52.272;9.580;2022-07-18T06:34:56;20.30;99.80
21167;DHT22;10741;52.272;9.580;2022-07-18T06:37:22;20.40;99.40
21167;DHT22;10741;52.272;9.580;2022-07-18T06:39:47;20.50;98.80
21167;DHT22;10741;52.272;9.580;2022-07-18T06:42:13;20.60;98.50
21167;DHT22;10741;52.272;9.580;2022-07-18T06:44:39;20.70;98.20
21167;DHT22;10741;52.272;9.580;2022-07-18T06:47:05;20.80;96.70
21167;DHT22;10741;52.272;9.580;2022-07-18T06:49:30;20.90;96.40
21167;DHT22;10741;52.272;9.580;2022-07-18T06:51:56;20.90;96.50
21167;DHT22;10741;52.272;9.580;2022-07-18T06:54:22;21.00;96.20
21167;DHT22;10741;52.272;9.580;2022-07-18T06:56:53;21.10;95.30
21167;DHT22;10741;52.272;9.580;2022-07-18T06:59:19;21.30;94.60
21167;DHT22;10741;52.272;9.580;2022-07-18T07:01:45;21.40;94.20
21167;DHT22;10741;52.272;9.580;2022-07-18T07:04:11;21.70;95.00
21167;DHT22;10741;52.272;9.580;2022-07-18T07:06:36;21.90;94.20
21167;DHT22;10741;52.272;9.580;2022-07-18T07:09:04;22.00;94.20
21167;DHT22;10741;52.272;9.580;2022-07-18T07:11:31;22.00;93.60
21167;DHT22;10741;52.272;9.580;2022-07-18T07:13:56;22.00;93.20
21167;DHT22;10741;52.272;9.580;2022-07-18T07:16:22;22.00;91.50
21167;DHT22;10741;52.272;9.580;2022-07-18T07:18:48;22.00;89.90
21167;DHT22;10741;52.272;9.580;2022-07-18T07:21:13;22.10;89.10
21167;DHT22;10741;52.272;9.580;2022-07-18T07:23:39;22.40;88.70
21167;DHT22;10741;52.272;9.580;2022-07-18T07:26:07;22.50;84.30
21167;DHT22;10741;52.272;9.580;2022-07-18T07:28:32;22.60;82.90
21167;DHT22;10741;52.272;9.580;2022-07-18T07:30:58;22.70;83.50
21167;DHT22;10741;52.272;9.580;2022-07-18T07:33:24;22.80;83.20
21167;DHT22;10741;52.272;9.580;2022-07-18T07:35:50;23.00;82.50
21167;DHT22;10741;52.272;9.580;2022-07-18T07:38:16;23.40;81.00
21167;DHT22;10741;52.272;9.580;2022-07-18T07:40:46;23.60;79.00
21167;DHT22;10741;52.272;9.580;2022-07-18T07:43:16;23.80;76.80
21167;DHT22;10741;52.272;9.580;2022-07-18T07:45:43;23.80;76.10
21167;DHT22;10741;52.272;9.580;2022-07-18T07:48:11;24.00;75.10
21167;DHT22;10741;52.272;9.580;2022-07-18T07:50:36;24.10;74.10
21167;DHT22;10741;52.272;9.580;2022-07-18T07:53:02;24.00;75.00
21167;DHT22;10741;52.272;9.580;2022-07-18T07:55:28;24.20;74.40
21167;DHT22;10741;52.272;9.580;2022-07-18T07:57:54;24.40;76.60
21167;DHT22;10741;52.272;9.580;2022-07-18T08:00:20;24.60;74.10
21167;DHT22;10741;52.272;9.580;2022-07-18T08:02:54;24.80;74.10
21167;DHT22;10741;52.272;9.580;2022-07-18T08:05:20;24.70;71.60
21167;DHT22;10741;52.272;9.580;2022-07-18T08:07:46;24.90;70.90
21167;DHT22;10741;52.272;9.580;2022-07-18T08:10:12;25.00;70.10
21167;DHT22;10741;52.272;9.580;2022-07-18T08:12:38;25.00;70.10
21167;DHT22;10741;52.272;9.580;2022-07-18T08:15:04;25.10;71.70
21167;DHT22;10741;52.272;9.580;2022-07-18T08:17:30;25.10;69.30
21167;DHT22;10741;52.272;9.580;2022-07-18T08:19:56;25.10;71.20
21167;DHT22;10741;52.272;9.580;2022-07-18T08:22:22;25.30;72.20
21167;DHT22;10741;52.272;9.580;2022-07-18T08:24:48;25.50;71.90
21167;DHT22;10741;52.272;9.580;2022-07-18T08:27:13;25.70;70.90
21167;DHT22;10741;52.272;9.580;2022-07-18T08:29:39;25.70;67.80
21167;DHT22;10741;52.272;9.580;2022-07-18T08:32:05;25.80;70.40
21167;DHT22;10741;52.272;9.580;2022-07-18T08:34:31;26.00;70.30
21167;DHT22;10741;52.272;9.580;2022-07-18T08:36:57;25.90;70.20
21167;DHT22;10741;52.272;9.580;2022-07-18T08:39:22;26.10;70.40
21167;DHT22;10741;52.272;9.580;2022-07-18T08:41:50;26.00;69.10
21167;DHT22;10741;52.272;9.580;2022-07-18T08:44:18;25.90;68.70
21167;DHT22;10741;52.272;9.580;2022-07-18T08:46:50;26.10;69.80
21167;DHT22;10741;52.272;9.580;2022-07-18T08:49:16;26.00;67.80
21167;DHT22;10741;52.272;9.580;2022-07-18T08:51:43;25.80;68.00
21167;DHT22;10741;52.272;9.580;2022-07-18T08:54:10;25.90;67.70
21167;DHT22;10741;52.272;9.580;2022-07-18T08:56:36;26.00;68.70
21167;DHT22;10741;52.272;9.580;2022-07-18T08:59:03;26.30;67.20
21167;DHT22;10741;52.272;9.580;2022-07-18T09:01:32;26.40;66.30
21167;DHT22;10741;52.272;9.580;2022-07-18T09:03:58;26.60;66.30
21167;DHT22;10741;52.272;9.580;2022-07-18T09:06:50;26.50;64.20
21167;DHT22;10741;52.272;9.580;2022-07-18T09:09:18;26.50;64.30
21167;DHT22;10741;52.272;9.580;2022-07-18T09:14:31;26.50;64.60
21167;DHT22;10741;52.272;9.580;2022-07-18T09:17:05;26.50;64.40
21167;DHT22;10741;52.272;9.580;2022-07-18T09:19:32;26.70;64.90
21167;DHT22;10741;52.272;9.580;2022-07-18T09:22:31;26.80;66.00
21167;DHT22;10741;52.272;9.580;2022-07-18T09:25:13;27.00;62.80
21167;DHT22;10741;52.272;9.580;2022-07-18T09:27:44;27.00;61.50
21167;DHT22;10741;52.272;9.580;2022-07-18T09:32:41;27.20;60.80
21167;DHT22;10741;52.272;9.580;2022-07-18T09:35:26;27.10;61.60
21167;DHT22;10741;52.272;9.580;2022-07-18T09:37:54;27.00;61.90
21167;DHT22;10741;52.272;9.580;2022-07-18T09:40:23;27.00;62.40
21167;DHT22;10741;52.272;9.580;2022-07-18T09:42:54;27.20;62.60
21167;DHT22;10741;52.272;9.580;2022-07-18T09:45:41;27.50;61.40
21167;DHT22;10741;52.272;9.580;2022-07-18T09:48:11;27.60;61.00
21167;DHT22;10741;52.272;9.580;2022-07-18T09:50:39;27.70;60.20
21167;DHT22;10741;52.272;9.580;2022-07-18T09:55:43;28.30;60.60
21167;DHT22;10741;52.272;9.580;2022-07-18T09:58:09;28.40;60.00
21167;DHT22;10741;52.272;9.580;2022-07-18T10:00:37;28.50;58.30
21167;DHT22;10741;52.272;9.580;2022-07-18T10:03:05;28.60;60.20
21167;DHT22;10741;52.272;9.580;2022-07-18T10:05:34;28.60;58.20
21167;DHT22;10741;52.272;9.580;2022-07-18T10:08:03;28.70;59.10
21167;DHT22;10741;52.272;9.580;2022-07-18T10:10:30;28.60;57.40
21167;DHT22;10741;52.272;9.580;2022-07-18T10:13:01;28.70;56.80
21167;DHT22;10741;52.272;9.580;2022-07-18T10:15:39;28.80;58.10
21167;DHT22;10741;52.272;9.580;2022-07-18T10:18:11;28.90;58.10
21167;DHT22;10741;52.272;9.580;2022-07-18T10:21:13;28.90;57.30
21167;DHT22;10741;52.272;9.580;2022-07-18T10:23:50;29.00;58.10
21167;DHT22;10741;52.272;9.580;2022-07-18T10:26:29;29.00;55.50
21167;DHT22;10741;52.272;9.580;2022-07-18T10:31:36;29.40;57.10
21167;DHT22;10741;52.272;9.580;2022-07-18T10:36:37;29.30;56.60
21167;DHT22;10741;52.272;9.580;2022-07-18T10:39:15;29.40;55.20
21167;DHT22;10741;52.272;9.580;2022-07-18T10:57:37;29.60;53.00
21167;DHT22;10741;52.272;9.580;2022-07-18T11:02:37;29.50;52.00
21167;DHT22;10741;52.272;9.580;2022-07-18T11:15:57;29.90;53.00
21167;DHT22;10741;52.272;9.580;2022-07-18T11:18:25;29.90;51.90
21167;DHT22;10741;52.272;9.580;2022-07-18T11:20:52;30.00;53.00
21167;DHT22;10741;52.272;9.580;2022-07-18T11:23:23;30.00;53.20
21167;DHT22;10741;52.272;9.580;2022-07-18T11:25:51;30.00;51.50
21167;DHT22;10741;52.272;9.580;2022-07-18T11:28:20;30.10;51.50
21167;DHT22;10741;52.272;9.580;2022-07-18T11:31:05;30.00;50.60
21167;DHT22;10741;52.272;9.580;2022-07-18T11:33:33;29.80;51.20
21167;DHT22;10741;52.272;9.580;2022-07-18T11:36:11;30.00;52.90
21167;DHT22;10741;52.272;9.580;2022-07-18T11:38:39;30.50;52.40
21167;DHT22;10741;52.272;9.580;2022-07-18T11:41:06;30.70;53.60
21167;DHT22;10741;52.272;9.580;2022-07-18T11:43:32;30.70;52.80
21167;DHT22;10741;52.272;9.580;2022-07-18T11:46:07;30.80;52.10
21167;DHT22;10741;52.272;9.580;2022-07-18T11:48:36;31.10;52.20
21167;DHT22;10741;52.272;9.580;2022-07-18T11:51:12;31.30;50.90
21167;DHT22;10741;52.272;9.580;2022-07-18T11:53:50;31.40;51.50
21167;DHT22;10741;52.272;9.580;2022-07-18T11:56:17;31.50;50.80
21167;DHT22;10741;52.272;9.580;2022-07-18T11:58:45;31.60;51.20
21167;DHT22;10741;52.272;9.580;2022-07-18T12:01:12;31.80;51.00
21167;DHT22;10741;52.272;9.580;2022-07-18T12:03:43;32.00;52.50
21167;DHT22;10741;52.272;9.580;2022-07-18T12:08:46;31.90;52.80
21167;DHT22;10741;52.272;9.580;2022-07-18T12:13:45;32.00;50.10
21167;DHT22;10741;52.272;9.580;2022-07-18T12:18:56;31.50;50.60
21167;DHT22;10741;52.272;9.580;2022-07-18T12:21:22;31.80;52.40
21167;DHT22;10741;52.272;9.580;2022-07-18T12:23:48;31.90;49.90
21167;DHT22;10741;52.272;9.580;2022-07-18T12:26:31;31.90;51.80
21167;DHT22;10741;52.272;9.580;2022-07-18T12:29:07;32.40;53.90
21167;DHT22;10741;52.272;9.580;2022-07-18T12:31:46;32.30;48.90
21167;DHT22;10741;52.272;9.580;2022-07-18T12:34:16;32.40;52.40
21167;DHT22;10741;52.272;9.580;2022-07-18T12:36:57;32.60;51.60
21167;DHT22;10741;52.272;9.580;2022-07-18T12:39:28;33.60;48.90
21167;DHT22;10741;52.272;9.580;2022-07-18T12:41:54;33.70;48.70
21167;DHT22;10741;52.272;9.580;2022-07-18T12:44:20;33.60;46.00
21167;DHT22;10741;52.272;9.580;2022-07-18T12:46:46;33.40;50.20
21167;DHT22;10741;52.272;9.580;2022-07-18T12:49:12;33.40;48.20
21167;DHT22;10741;52.272;9.580;2022-07-18T12:51:37;33.40;47.10
21167;DHT22;10741;52.272;9.580;2022-07-18T12:54:03;33.80;47.60
21167;DHT22;10741;52.272;9.580;2022-07-18T12:56:29;34.10;49.00
21167;DHT22;10741;52.272;9.580;2022-07-18T12:58:55;34.00;45.60
21167;DHT22;10741;52.272;9.580;2022-07-18T13:01:21;34.10;46.60
21167;DHT22;10741;52.272;9.580;2022-07-18T13:03:46;34.10;45.60
21167;DHT22;10741;52.272;9.580;2022-07-18T13:06:12;33.90;45.30
21167;DHT22;10741;52.272;9.580;2022-07-18T13:08:38;34.10;46.90
21167;DHT22;10741;52.272;9.580;2022-07-18T13:11:04;34.70;45.80
21167;DHT22;10741;52.272;9.580;2022-07-18T13:13:30;34.60;45.80
21167;DHT22;10741;52.272;9.580;2022-07-18T13:15:56;34.60;44.20
21167;DHT22;10741;52.272;9.580;2022-07-18T13:18:21;34.30;44.10
21167;DHT22;10741;52.272;9.580;2022-07-18T13:20:48;34.10;44.20
21167;DHT22;10741;52.272;9.580;2022-07-18T13:23:14;34.40;45.30
21167;DHT22;10741;52.272;9.580;2022-07-18T13:25:41;34.70;45.30
21167;DHT22;10741;52.272;9.580;2022-07-18T13:28:07;34.90;44.30
21167;DHT22;10741;52.272;9.580;2022-07-18T13:30:33;34.90;43.30
21167;DHT22;10741;52.272;9.580;2022-07-18T13:32:59;34.90;44.40
21167;DHT22;10741;52.272;9.580;2022-07-18T13:35:25;34.70;46.20
21167;DHT22;10741;52.272;9.580;2022-07-18T13:37:51;34.90;45.00
21167;DHT22;10741;52.272;9.580;2022-07-18T13:40:17;34.90;44.10
21167;DHT22;10741;52.272;9.580;2022-07-18T13:42:44;34.70;44.90
21167;DHT22;10741;52.272;9.580;2022-07-18T13:45:10;35.10;45.00
21167;DHT22;10741;52.272;9.580;2022-07-18T13:47:38;35.00;44.30
21167;DHT22;10741;52.272;9.580;2022-07-18T13:50:07;35.10;46.30
21167;DHT22;10741;52.272;9.580;2022-07-18T13:52:33;35.20;47.50
21167;DHT22;10741;52.272;9.580;2022-07-18T13:54:59;35.40;44.50
21167;DHT22;10741;52.272;9.580;2022-07-18T13:57:25;35.20;44.90
21167;DHT22;10741;52.272;9.580;2022-07-18T13:59:51;35.20;45.00
21167;DHT22;10741;52.272;9.580;2022-07-18T14:02:17;35.30;46.00
21167;DHT22;10741;52.272;9.580;2022-07-18T14:04:43;35.60;47.30
21167;DHT22;10741;52.272;9.580;2022-07-18T14:07:09;34.90;47.10
21167;DHT22;10741;52.272;9.580;2022-07-18T14:09:37;35.00;48.10
21167;DHT22;10741;52.272;9.580;2022-07-18T14:12:04;35.00;46.20
21167;DHT22;10741;52.272;9.580;2022-07-18T14:14:30;34.70;48.00
21167;DHT22;10741;52.272;9.580;2022-07-18T14:16:56;34.10;49.30
21167;DHT22;10741;52.272;9.580;2022-07-18T14:19:21;33.70;49.70
21167;DHT22;10741;52.272;9.580;2022-07-18T14:21:47;33.60;47.10
21167;DHT22;10741;52.272;9.580;2022-07-18T14:24:13;33.70;47.50
21167;DHT22;10741;52.272;9.580;2022-07-18T14:26:39;34.10;49.20
21167;DHT22;10741;52.272;9.580;2022-07-18T14:29:05;34.20;47.90
21167;DHT22;10741;52.272;9.580;2022-07-18T14:31:31;34.10;47.60
21167;DHT22;10741;52.272;9.580;2022-07-18T14:33:56;34.10;47.90
21167;DHT22;10741;52.272;9.580;2022-07-18T14:36:22;33.90;47.80
21167;DHT22;10741;52.272;9.580;2022-07-18T14:38:48;33.80;49.00
21167;DHT22;10741;52.272;9.580;2022-07-18T14:41:14;34.00;48.10
21167;DHT22;10741;52.272;9.580;2022-07-18T14:43:40;33.90;47.70
21167;DHT22;10741;52.272;9.580;2022-07-18T14:46:06;34.10;46.80
21167;DHT22;10741;52.272;9.580;2022-07-18T14:48:31;34.30;46.80
21167;DHT22;10741;52.272;9.580;2022-07-18T14:50:57;34.30;46.80
21167;DHT22;10741;52.272;9.580;2022-07-18T14:53:23;34.00;47.10
21167;DHT22;10741;52.272;9.580;2022-07-18T14:55:49;33.70;48.60
21167;DHT22;10741;52.272;9.580;2022-07-18T14:58:15;33.60;47.80
21167;DHT22;10741;52.272;9.580;2022-07-18T15:00:40;33.50;48.40
21167;DHT22;10741;52.272;9.580;2022-07-18T15:03:06;33.40;48.80
21167;DHT22;10741;52.272;9.580;2022-07-18T15:05:32;33.40;49.20
21167;DHT22;10741;52.272;9.580;2022-07-18T15:07:58;33.30;49.00
21167;DHT22;10741;52.272;9.580;2022-07-18T15:10:24;33.40;50.20
21167;DHT22;10741;52.272;9.580;2022-07-18T15:12:49;33.40;48.90
21167;DHT22;10741;52.272;9.580;2022-07-18T15:15:15;33.30;47.80
21167;DHT22;10741;52.272;9.580;2022-07-18T15:17:41;33.10;49.60
21167;DHT22;10741;52.272;9.580;2022-07-18T15:20:08;33.00;50.70
21167;DHT22;10741;52.272;9.580;2022-07-18T15:22:34;32.80;49.80
21167;DHT22;10741;52.272;9.580;2022-07-18T15:25:00;32.70;49.50
21167;DHT22;10741;52.272;9.580;2022-07-18T15:27:26;32.90;50.40
21167;DHT22;10741;52.272;9.580;2022-07-18T15:29:52;32.90;50.20
21167;DHT22;10741;52.272;9.580;2022-07-18T15:32:18;32.80;48.00
21167;DHT22;10741;52.272;9.580;2022-07-18T15:34:43;32.60;48.70
21167;DHT22;10741;52.272;9.580;2022-07-18T15:37:09;32.50;49.00
21167;DHT22;10741;52.272;9.580;2022-07-18T15:39:35;32.40;48.80
21167;DHT22;10741;52.272;9.580;2022-07-18T15:42:01;32.30;48.30
21167;DHT22;10741;52.272;9.580;2022-07-18T15:44:27;32.30;49.20
21167;DHT22;10741;52.272;9.580;2022-07-18T15:46:53;32.20;48.90
21167;DHT22;10741;52.272;9.580;2022-07-18T15:49:19;32.00;48.90
21167;DHT22;10741;52.272;9.580;2022-07-18T15:51:45;32.00;50.30
21167;DHT22;10741;52.272;9.580;2022-07-18T15:54:14;31.90;47.80
21167;DHT22;10741;52.272;9.580;2022-07-18T15:56:40;31.90;49.40
21167;DHT22;10741;52.272;9.580;2022-07-18T15:59:06;31.90;49.80
21167;DHT22;10741;52.272;9.580;2022-07-18T16:01:32;31.80;49.70
21167;DHT22;10741;52.272;9.580;2022-07-18T16:03:58;31.80;50.00
21167;DHT22;10741;52.272;9.580;2022-07-18T16:06:23;31.70;52.00
21167;DHT22;10741;52.272;9.580;2022-07-18T16:08:49;31.60;48.90
21167;DHT22;10741;52.272;9.580;2022-07-18T16:11:15;31.60;49.00
21167;DHT22;10741;52.272;9.580;2022-07-18T16:13:41;31.60;48.30
21167;DHT22;10741;52.272;9.580;2022-07-18T16:16:07;31.60;48.20
21167;DHT22;10741;52.272;9.580;2022-07-18T16:18:32;31.70;47.80
21167;DHT22;10741;52.272;9.580;2022-07-18T16:20:58;31.80;48.90